Time;durP1;ratioP1;P1;durP2;ratioP2;P2;SDS_P1;SDS_P2;PMS_P1;PMS_P2;Temp;Humidity;BMP_temperature;BMP_pressure;BME280_temperature;BME280_humidity;BME280_pressure;Samples;Min_cycle;Max_cycle;Signal;HPM_P1;HPM_P2
2022/11/19 00:01:04;;;;;;;;;;;25.00;91.60;;;;;;5054406;28;19920;-75
2022/11/19 00:03:32;;;;;;;;;;;25.00;90.60;;;;;;5056062;28;20346;-74
2022/11/19 00:06:07;;;;;;;;;;;24.90;91.30;;;;;;5054893;28;19928;-73
2022/11/19 00:08:34;;;;;;;;;;;25.00;90.50;;;;;;5056410;28;19973;-73
2022/11/19 00:11:08;;;;;;;;;;;25.10;91.10;;;;;;5054771;28;19986;-74
2022/11/19 00:13:34;;;;;;;;;;;25.40;91.00;;;;;;5053798;28;19924;-74
2022/11/19 00:16:19;;;;;;;;;;;25.50;90.20;;;;;;5054598;28;19948;-76
2022/11/19 00:18:45;;;;;;;;;;;25.40;90.40;;;;;;5054606;28;19923;-75
2022/11/19 00:21:12;;;;;;;;;;;25.40;90.10;;;;;;5054626;28;19921;-74
2022/11/19 00:23:39;;;;;;;;;;;25.30;90.50;;;;;;5054909;28;20001;-75
2022/11/19 00:26:10;;;;;;;;;;;25.50;89.90;;;;;;5057681;28;19935;-73
2022/11/19 00:28:37;;;;;;;;;;;25.70;90.00;;;;;;5054298;28;20481;-74
2022/11/19 00:31:05;;;;;;;;;;;25.60;89.00;;;;;;5055141;28;20276;-74
2022/11/19 00:33:32;;;;;;;;;;;25.70;89.20;;;;;;5059602;28;19951;-75
2022/11/19 00:35:59;;;;;;;;;;;26.00;89.20;;;;;;5054449;28;19935;-75
2022/11/19 00:38:26;;;;;;;;;;;26.20;88.80;;;;;;5054882;28;19920;-73
2022/11/19 00:40:53;;;;;;;;;;;26.30;87.80;;;;;;5054975;28;20420;-74
2022/11/19 00:46:05;;;;;;;;;;;26.60;87.00;;;;;;5055752;28;19934;-75
2022/11/19 00:48:31;;;;;;;;;;;26.50;88.50;;;;;;5055207;28;19920;-73
2022/11/19 00:50:58;;;;;;;;;;;26.70;88.40;;;;;;5052777;28;19920;-74
2022/11/19 00:53:25;;;;;;;;;;;26.60;87.20;;;;;;5056432;28;20378;-73
2022/11/19 00:55:51;;;;;;;;;;;26.30;87.10;;;;;;5053852;28;21979;-74
2022/11/19 00:58:18;;;;;;;;;;;26.20;88.10;;;;;;5055328;28;19943;-73
2022/11/19 01:00:45;;;;;;;;;;;26.30;87.90;;;;;;5055556;28;20358;-75
2022/11/19 01:03:12;;;;;;;;;;;26.70;86.90;;;;;;5054626;28;19921;-75
2022/11/19 01:05:38;;;;;;;;;;;27.00;87.50;;;;;;5054989;28;20355;-75
2022/11/19 01:08:05;;;;;;;;;;;27.30;86.70;;;;;;5053794;28;20371;-75
2022/11/19 01:10:33;;;;;;;;;;;27.60;83.80;;;;;;5053395;28;20015;-76
2022/11/19 01:15:47;;;;;;;;;;;27.60;84.60;;;;;;5054948;28;19992;-75
2022/11/19 01:18:14;;;;;;;;;;;27.80;84.50;;;;;;5055026;28;20405;-75
2022/11/19 01:20:41;;;;;;;;;;;28.00;84.10;;;;;;5054270;28;19927;-75
2022/11/19 01:23:07;;;;;;;;;;;27.80;84.40;;;;;;5055591;28;19959;-75
2022/11/19 01:25:35;;;;;;;;;;;27.80;84.70;;;;;;5051480;28;19975;-75
2022/11/19 01:28:02;;;;;;;;;;;28.20;84.20;;;;;;5052402;28;20039;-75
2022/11/19 01:30:29;;;;;;;;;;;28.30;82.30;;;;;;5055546;28;20370;-75
2022/11/19 01:32:56;;;;;;;;;;;28.20;82.80;;;;;;5058409;28;20267;-76
2022/11/19 01:35:23;;;;;;;;;;;28.40;82.00;;;;;;5059910;28;19920;-75
2022/11/19 01:37:50;;;;;;;;;;;28.70;82.60;;;;;;5060672;28;20327;-75
2022/11/19 01:40:17;;;;;;;;;;;28.60;83.70;;;;;;5057581;28;19920;-76
2022/11/19 01:42:49;;;;;;;;;;;28.60;82.20;;;;;;5057996;28;20423;-75
2022/11/19 01:45:22;;;;;;;;;;;28.60;82.20;;;;;;5058605;28;19920;-75
2022/11/19 01:47:48;;;;;;;;;;;28.60;82.20;;;;;;5059152;28;20670;-77
2022/11/19 01:50:15;;;;;;;;;;;28.50;80.30;;;;;;5059069;28;19916;-75
2022/11/19 01:52:42;;;;;;;;;;;28.10;81.80;;;;;;5057548;28;19923;-74
2022/11/19 01:55:09;;;;;;;;;;;28.30;82.10;;;;;;5058749;28;19920;-74
2022/11/19 01:57:37;;;;;;;;;;;28.70;83.00;;;;;;5055636;28;20362;-73
2022/11/19 02:00:04;;;;;;;;;;;29.00;82.00;;;;;;5059280;28;19920;-75
2022/11/19 02:02:31;;;;;;;;;;;29.20;82.60;;;;;;5056843;28;20013;-73
2022/11/19 02:04:59;;;;;;;;;;;29.20;80.00;;;;;;5059203;28;20920;-73
2022/11/19 02:07:28;;;;;;;;;;;29.20;81.40;;;;;;5056258;28;19994;-73
2022/11/19 02:09:55;;;;;;;;;;;29.10;80.80;;;;;;5058043;28;19926;-77
2022/11/19 02:12:28;;;;;;;;;;;29.50;81.60;;;;;;5057361;28;19970;-77
2022/11/19 02:15:04;;;;;;;;;;;29.60;81.00;;;;;;5057802;28;20430;-75
2022/11/19 02:17:43;;;;;;;;;;;29.30;80.50;;;;;;5054648;28;19921;-75
2022/11/19 02:20:22;;;;;;;;;;;29.20;79.00;;;;;;5056652;28;19912;-75
2022/11/19 02:22:48;;;;;;;;;;;29.10;80.30;;;;;;5055396;28;20141;-78
2022/11/19 02:25:21;;;;;;;;;;;29.40;79.30;;;;;;5057289;28;19913;-75
2022/11/19 02:27:50;;;;;;;;;;;29.00;80.50;;;;;;5056761;28;19982;-75
2022/11/19 02:30:18;;;;;;;;;;;28.80;80.00;;;;;;5057628;28;19912;-75
2022/11/19 02:33:03;;;;;;;;;;;28.90;80.30;;;;;;5058862;28;19912;-75
2022/11/19 02:35:41;;;;;;;;;;;29.20;82.40;;;;;;5056694;28;19916;-74
2022/11/19 02:38:17;;;;;;;;;;;29.50;81.50;;;;;;5055492;28;19913;-74
2022/11/19 02:40:47;;;;;;;;;;;29.80;80.10;;;;;;5057174;28;19919;-74
2022/11/19 02:43:26;;;;;;;;;;;29.80;80.00;;;;;;5056810;28;19919;-75
2022/11/19 02:45:58;;;;;;;;;;;29.80;80.60;;;;;;5048432;28;19932;-74
2022/11/19 02:48:30;;;;;;;;;;;30.10;78.70;;;;;;5055573;28;19921;-77
2022/11/19 02:51:01;;;;;;;;;;;30.10;79.40;;;;;;5055547;28;19912;-76
2022/11/19 02:53:28;;;;;;;;;;;30.10;79.30;;;;;;5055298;28;20398;-74
2022/11/19 02:56:12;;;;;;;;;;;30.00;78.10;;;;;;5054803;28;19921;-75
2022/11/19 03:04:31;;;;;;;;;;;30.70;77.80;;;;;;5048867;28;19923;-75
2022/11/19 03:06:57;;;;;;;;;;;30.60;77.00;;;;;;5053474;28;19979;-75
2022/11/19 03:09:24;;;;;;;;;;;30.50;78.40;;;;;;5049459;28;20024;-75
2022/11/19 03:11:56;;;;;;;;;;;30.40;76.50;;;;;;5050144;28;19973;-73
2022/11/19 03:17:15;;;;;;;;;;;30.70;78.60;;;;;;5050072;28;20015;-74
2022/11/19 03:19:44;;;;;;;;;;;31.30;77.30;;;;;;5050785;28;19966;-74
2022/11/19 03:22:23;;;;;;;;;;;31.00;77.60;;;;;;5050142;28;21484;-75
2022/11/19 03:25:04;;;;;;;;;;;30.80;76.70;;;;;;5050929;28;20662;-73
2022/11/19 03:27:35;;;;;;;;;;;30.60;77.10;;;;;;5049645;28;19928;-75
2022/11/19 03:30:03;;;;;;;;;;;30.70;77.90;;;;;;5051423;28;20055;-75
2022/11/19 03:32:37;;;;;;;;;;;30.50;76.30;;;;;;5053527;28;19921;-74
2022/11/19 03:35:07;;;;;;;;;;;30.30;77.60;;;;;;5051447;28;19920;-74
2022/11/19 03:37:37;;;;;;;;;;;30.20;77.10;;;;;;5050432;28;20382;-74
2022/11/19 03:40:05;;;;;;;;;;;30.30;77.50;;;;;;5051869;28;19924;-75
2022/11/19 03:42:32;;;;;;;;;;;30.40;77.20;;;;;;5050600;28;20016;-74
2022/11/19 03:45:02;;;;;;;;;;;30.50;76.20;;;;;;5049362;28;19970;-77
2022/11/19 03:47:34;;;;;;;;;;;30.50;76.80;;;;;;5049408;28;20433;-75
2022/11/19 03:50:05;;;;;;;;;;;30.70;77.10;;;;;;5051405;28;19917;-74
2022/11/19 03:52:32;;;;;;;;;;;30.90;76.50;;;;;;5049854;28;19920;-73
2022/11/19 03:54:58;;;;;;;;;;;30.80;75.90;;;;;;5049837;28;20424;-74
2022/11/19 03:57:26;;;;;;;;;;;30.80;75.70;;;;;;5052541;28;20011;-73
2022/11/19 03:59:52;;;;;;;;;;;31.00;75.30;;;;;;5051276;28;19920;-74
2022/11/19 04:02:19;;;;;;;;;;;30.90;76.00;;;;;;5051942;28;19916;-74
2022/11/19 04:04:46;;;;;;;;;;;30.70;75.60;;;;;;5051645;28;19916;-73
2022/11/19 04:07:14;;;;;;;;;;;30.60;75.70;;;;;;5050694;28;19924;-74
2022/11/19 04:09:41;;;;;;;;;;;30.60;75.60;;;;;;5054610;28;19920;-73
2022/11/19 04:12:13;;;;;;;;;;;30.60;74.80;;;;;;5051417;28;22057;-74
2022/11/19 04:14:39;;;;;;;;;;;30.60;76.20;;;;;;5052148;28;19917;-74
2022/11/19 04:17:06;;;;;;;;;;;30.60;74.90;;;;;;5049903;28;19921;-76
2022/11/19 04:19:33;;;;;;;;;;;30.40;74.80;;;;;;5054005;28;20027;-74
2022/11/19 04:21:59;;;;;;;;;;;30.30;75.50;;;;;;5051080;28;19932;-75
2022/11/19 04:24:26;;;;;;;;;;;30.30;74.70;;;;;;5049763;28;19920;-74
2022/11/19 04:26:53;;;;;;;;;;;30.30;74.80;;;;;;5051651;28;19935;-74
2022/11/19 04:29:19;;;;;;;;;;;30.30;74.40;;;;;;5055223;28;19920;-75
2022/11/19 04:31:46;;;;;;;;;;;30.00;73.90;;;;;;5051239;28;20393;-75
2022/11/19 04:34:12;;;;;;;;;;;29.40;74.70;;;;;;5052837;28;19999;-76
2022/11/19 04:36:41;;;;;;;;;;;29.30;75.50;;;;;;5052494;28;19924;-74
2022/11/19 04:39:08;;;;;;;;;;;29.50;75.40;;;;;;5055696;28;19927;-74
2022/11/19 04:41:35;;;;;;;;;;;29.60;75.90;;;;;;5053960;28;20015;-74
2022/11/19 04:44:02;;;;;;;;;;;29.50;75.20;;;;;;5056437;28;20074;-74
2022/11/19 04:46:28;;;;;;;;;;;29.40;75.50;;;;;;5054920;28;19973;-74
2022/11/19 04:48:55;;;;;;;;;;;29.50;75.50;;;;;;5053910;28;19917;-75
2022/11/19 04:51:22;;;;;;;;;;;29.40;75.90;;;;;;5054686;28;19916;-74
2022/11/19 04:53:49;;;;;;;;;;;29.40;75.80;;;;;;5056200;28;19921;-75
2022/11/19 04:56:16;;;;;;;;;;;29.50;74.90;;;;;;5053926;28;20293;-72
2022/11/19 04:58:43;;;;;;;;;;;29.40;75.20;;;;;;5056598;28;20298;-72
2022/11/19 05:01:09;;;;;;;;;;;29.40;74.80;;;;;;5054103;28;19952;-74
2022/11/19 05:03:36;;;;;;;;;;;29.50;75.70;;;;;;5057493;28;19920;-74
2022/11/19 05:06:02;;;;;;;;;;;29.70;74.90;;;;;;5055464;28;19931;-75
2022/11/19 05:08:29;;;;;;;;;;;29.90;75.00;;;;;;5058284;28;19924;-74
2022/11/19 05:10:56;;;;;;;;;;;30.10;75.10;;;;;;5058696;28;20426;-73
2022/11/19 05:13:22;;;;;;;;;;;30.20;76.60;;;;;;5057670;28;19966;-76
2022/11/19 05:15:49;;;;;;;;;;;30.40;76.90;;;;;;5057551;28;19921;-75
2022/11/19 05:18:16;;;;;;;;;;;30.50;76.50;;;;;;5058472;28;19990;-74
2022/11/19 05:20:42;;;;;;;;;;;30.60;77.90;;;;;;5056106;28;20642;-74
2022/11/19 05:23:09;;;;;;;;;;;30.30;79.10;;;;;;5036148;28;19924;-75
2022/11/19 05:25:36;;;;;;;;;;;30.10;80.90;;;;;;5060294;28;19921;-76
2022/11/19 05:28:02;;;;;;;;;;;30.10;80.10;;;;;;5055260;28;19956;-74
2022/11/19 05:30:29;;;;;;;;;;;29.90;80.90;;;;;;5054534;28;20348;-75
2022/11/19 05:32:56;;;;;;;;;;;29.90;81.10;;;;;;5054736;28;19916;-75
2022/11/19 05:35:23;;;;;;;;;;;29.60;82.80;;;;;;5056359;28;19927;-74
2022/11/19 05:37:50;;;;;;;;;;;29.30;84.00;;;;;;5064866;28;19921;-75
2022/11/19 05:40:17;;;;;;;;;;;29.20;83.70;;;;;;5058209;28;20385;-75
2022/11/19 05:42:43;;;;;;;;;;;29.00;84.50;;;;;;5057267;28;19925;-74
2022/11/19 05:45:10;;;;;;;;;;;28.80;85.30;;;;;;5058526;28;20000;-76
2022/11/19 05:47:37;;;;;;;;;;;28.70;85.90;;;;;;5058232;28;19935;-75
2022/11/19 05:50:04;;;;;;;;;;;28.50;86.60;;;;;;5057673;28;19920;-73
2022/11/19 05:52:31;;;;;;;;;;;28.20;87.00;;;;;;5060514;28;19928;-74
2022/11/19 05:54:57;;;;;;;;;;;27.90;87.80;;;;;;5055586;28;19944;-74
2022/11/19 05:57:24;;;;;;;;;;;27.80;87.90;;;;;;5055278;28;20274;-74
2022/11/19 05:59:51;;;;;;;;;;;27.70;88.50;;;;;;5058178;28;21003;-73
2022/11/19 06:02:17;;;;;;;;;;;27.40;88.60;;;;;;5054203;28;19963;-75
2022/11/19 06:04:44;;;;;;;;;;;27.40;89.10;;;;;;5058759;28;19920;-75
2022/11/19 06:07:11;;;;;;;;;;;27.30;89.50;;;;;;5058326;28;20453;-75
2022/11/19 06:09:37;;;;;;;;;;;27.30;89.70;;;;;;5059015;28;19924;-74
2022/11/19 06:12:04;;;;;;;;;;;27.20;90.00;;;;;;5054778;28;19920;-75
2022/11/19 06:14:32;;;;;;;;;;;27.10;90.10;;;;;;5051762;28;19920;-73
2022/11/19 06:16:59;;;;;;;;;;;27.00;90.30;;;;;;5050751;28;19921;-74
2022/11/19 06:19:26;;;;;;;;;;;26.80;90.60;;;;;;5050949;28;20389;-74
2022/11/19 06:21:53;;;;;;;;;;;26.70;90.60;;;;;;5051938;28;20011;-75
2022/11/19 06:24:20;;;;;;;;;;;26.70;90.70;;;;;;5054694;28;19916;-74
2022/11/19 06:26:46;;;;;;;;;;;26.60;90.80;;;;;;5059483;28;19933;-74
2022/11/19 06:29:16;;;;;;;;;;;26.60;90.90;;;;;;5059688;28;19920;-72
2022/11/19 06:31:43;;;;;;;;;;;26.70;91.00;;;;;;5057735;28;19920;-74
2022/11/19 06:34:10;;;;;;;;;;;27.10;90.60;;;;;;5058157;28;20005;-73
2022/11/19 06:36:36;;;;;;;;;;;27.10;90.70;;;;;;5056640;28;22268;-73
2022/11/19 06:39:03;;;;;;;;;;;27.10;90.60;;;;;;5057514;28;20394;-74
2022/11/19 06:41:30;;;;;;;;;;;27.10;90.40;;;;;;5055993;28;19964;-74
2022/11/19 06:43:57;;;;;;;;;;;27.10;90.50;;;;;;5055624;28;19955;-74
2022/11/19 06:46:23;;;;;;;;;;;27.00;91.10;;;;;;5056921;28;19929;-75
2022/11/19 06:48:50;;;;;;;;;;;27.00;91.00;;;;;;5057214;28;19921;-73
2022/11/19 06:51:17;;;;;;;;;;;26.80;90.70;;;;;;5057460;28;19919;-76
2022/11/19 06:53:43;;;;;;;;;;;26.40;90.70;;;;;;5057288;28;19916;-75
2022/11/19 06:56:10;;;;;;;;;;;26.20;91.20;;;;;;5055679;28;19962;-73
2022/11/19 06:58:37;;;;;;;;;;;26.10;91.50;;;;;;5057992;28;20383;-74
2022/11/19 07:01:03;;;;;;;;;;;26.00;91.80;;;;;;5055546;28;19932;-74
2022/11/19 07:03:30;;;;;;;;;;;25.90;91.60;;;;;;5055439;28;19920;-73
2022/11/19 07:05:58;;;;;;;;;;;25.90;91.70;;;;;;5054978;28;19917;-73
2022/11/19 07:08:25;;;;;;;;;;;25.80;91.50;;;;;;5055363;28;19986;-75
2022/11/19 07:10:52;;;;;;;;;;;25.70;91.70;;;;;;5054020;28;20370;-75
2022/11/19 07:13:18;;;;;;;;;;;25.70;91.80;;;;;;5058111;28;20305;-73
2022/11/19 07:15:45;;;;;;;;;;;25.60;92.10;;;;;;5055103;28;20007;-73
2022/11/19 07:18:12;;;;;;;;;;;25.40;92.30;;;;;;5056668;28;19920;-74
2022/11/19 07:20:40;;;;;;;;;;;25.30;92.60;;;;;;5055616;28;20371;-74
2022/11/19 07:23:10;;;;;;;;;;;25.10;92.50;;;;;;5051988;28;19920;-75
2022/11/19 07:25:37;;;;;;;;;;;25.00;92.50;;;;;;5056367;28;20394;-72
2022/11/19 07:28:03;;;;;;;;;;;25.00;92.70;;;;;;5056840;28;19924;-73
2022/11/19 07:30:30;;;;;;;;;;;24.90;92.90;;;;;;5056722;28;19920;-73
2022/11/19 07:32:57;;;;;;;;;;;24.90;93.00;;;;;;5055148;28;20031;-72
2022/11/19 07:35:23;;;;;;;;;;;24.90;93.00;;;;;;5054406;28;19948;-74
2022/11/19 07:37:50;;;;;;;;;;;24.90;93.30;;;;;;5054799;28;19916;-76
2022/11/19 07:40:17;;;;;;;;;;;24.80;93.20;;;;;;5056586;28;20154;-75
2022/11/19 07:42:49;;;;;;;;;;;24.80;93.40;;;;;;5052866;28;19920;-74
2022/11/19 07:45:17;;;;;;;;;;;24.70;93.50;;;;;;5055541;28;19924;-75
2022/11/19 07:47:44;;;;;;;;;;;24.60;93.90;;;;;;5057689;28;19929;-76
2022/11/19 07:50:11;;;;;;;;;;;24.60;94.00;;;;;;5054153;28;19926;-75
2022/11/19 07:52:37;;;;;;;;;;;24.60;94.10;;;;;;5055687;28;20014;-74
2022/11/19 07:55:05;;;;;;;;;;;24.60;94.30;;;;;;5055559;28;19920;-76
2022/11/19 07:57:32;;;;;;;;;;;24.50;94.50;;;;;;5055336;28;19920;-76
2022/11/19 07:59:58;;;;;;;;;;;24.50;94.70;;;;;;5055022;28;19944;-77
2022/11/19 08:02:25;;;;;;;;;;;24.40;94.70;;;;;;5055892;28;20260;-74
2022/11/19 08:04:51;;;;;;;;;;;24.40;94.90;;;;;;5056955;28;19958;-75
2022/11/19 08:07:18;;;;;;;;;;;24.30;94.90;;;;;;5054663;28;19982;-74
2022/11/19 08:09:45;;;;;;;;;;;24.30;95.00;;;;;;5053734;28;19928;-74
2022/11/19 08:12:11;;;;;;;;;;;24.30;95.10;;;;;;5049815;28;21148;-78
2022/11/19 08:14:38;;;;;;;;;;;24.20;95.10;;;;;;5054353;28;19927;-75
2022/11/19 08:19:49;;;;;;;;;;;24.20;95.20;;;;;;5055915;28;20408;-77
2022/11/19 08:22:16;;;;;;;;;;;24.10;95.30;;;;;;5055884;28;19920;-75
2022/11/19 08:24:43;;;;;;;;;;;24.00;95.50;;;;;;5055897;28;20366;-75
2022/11/19 08:27:10;;;;;;;;;;;24.00;95.80;;;;;;5054421;28;19928;-76
2022/11/19 08:29:38;;;;;;;;;;;23.90;95.80;;;;;;5056984;28;19923;-75
2022/11/19 08:32:05;;;;;;;;;;;23.90;96.00;;;;;;5054679;28;20195;-77
2022/11/19 08:34:31;;;;;;;;;;;23.80;96.10;;;;;;5057415;28;19920;-77
2022/11/19 08:37:01;;;;;;;;;;;23.80;96.20;;;;;;5054430;28;19923;-78
2022/11/19 08:39:28;;;;;;;;;;;23.80;96.20;;;;;;5052962;28;19921;-76
2022/11/19 08:44:39;;;;;;;;;;;23.70;96.50;;;;;;5058544;28;19966;-74
2022/11/19 08:47:05;;;;;;;;;;;23.60;96.60;;;;;;5053173;28;19928;-74
2022/11/19 08:49:35;;;;;;;;;;;23.50;96.70;;;;;;5054214;28;19968;-75
2022/11/19 08:52:02;;;;;;;;;;;23.50;97.00;;;;;;5052342;28;20659;-75
2022/11/19 08:54:28;;;;;;;;;;;23.50;96.80;;;;;;5056019;28;19920;-76
2022/11/19 08:56:55;;;;;;;;;;;23.40;96.80;;;;;;5050990;28;20664;-76
2022/11/19 08:59:22;;;;;;;;;;;23.30;97.00;;;;;;5036433;28;19916;-75
2022/11/19 09:01:49;;;;;;;;;;;23.30;97.20;;;;;;5055598;28;19916;-75
2022/11/19 09:04:16;;;;;;;;;;;23.20;97.30;;;;;;5056452;28;19927;-76
2022/11/19 09:06:43;;;;;;;;;;;23.20;97.50;;;;;;5056523;28;19929;-75
2022/11/19 09:09:12;;;;;;;;;;;23.10;97.70;;;;;;5056665;28;19974;-76
2022/11/19 09:11:39;;;;;;;;;;;23.00;97.80;;;;;;5055089;28;20110;-78
2022/11/19 09:14:05;;;;;;;;;;;23.00;97.90;;;;;;5055135;28;19921;-75
2022/11/19 09:16:32;;;;;;;;;;;22.90;97.90;;;;;;5055187;28;19920;-76
2022/11/19 09:19:01;;;;;;;;;;;22.80;98.20;;;;;;5055483;28;19975;-74
2022/11/19 09:21:27;;;;;;;;;;;22.80;98.30;;;;;;5056112;28;20393;-74
2022/11/19 09:23:54;;;;;;;;;;;22.70;98.40;;;;;;5056335;28;19969;-75
2022/11/19 09:26:27;;;;;;;;;;;22.70;98.60;;;;;;5061649;28;19932;-73
2022/11/19 09:28:53;;;;;;;;;;;22.60;98.70;;;;;;5035574;28;19924;-74
2022/11/19 09:31:20;;;;;;;;;;;22.60;98.90;;;;;;5051029;28;20011;-76
2022/11/19 09:33:48;;;;;;;;;;;22.60;99.20;;;;;;5053737;28;20011;-74
2022/11/19 09:36:15;;;;;;;;;;;22.60;99.40;;;;;;5055319;28;20379;-77
2022/11/19 09:38:42;;;;;;;;;;;22.50;99.60;;;;;;5055838;28;19955;-76
2022/11/19 09:41:17;;;;;;;;;;;22.50;99.60;;;;;;5053510;28;19971;-77
2022/11/19 09:44:05;;;;;;;;;;;22.60;99.70;;;;;;5054140;28;20002;-77
2022/11/19 09:46:37;;;;;;;;;;;22.60;99.70;;;;;;5054102;28;19928;-78
2022/11/19 09:49:09;;;;;;;;;;;22.50;99.50;;;;;;5058139;28;21428;-76
2022/11/19 09:51:37;;;;;;;;;;;22.50;99.60;;;;;;5057194;28;19931;-73
2022/11/19 09:54:07;;;;;;;;;;;22.60;99.70;;;;;;5069462;28;19917;-78
2022/11/19 09:56:36;;;;;;;;;;;22.50;99.70;;;;;;5063427;28;19982;-75
2022/11/19 09:59:06;;;;;;;;;;;22.50;99.70;;;;;;5062736;28;19920;-75
2022/11/19 10:01:34;;;;;;;;;;;22.50;99.80;;;;;;5065923;28;20026;-73
2022/11/19 10:04:01;;;;;;;;;;;22.40;99.90;;;;;;5062490;28;20015;-74
2022/11/19 10:06:47;;;;;;;;;;;22.40;99.90;;;;;;5059470;28;19925;-75
2022/11/19 10:09:17;;;;;;;;;;;22.40;99.90;;;;;;5047678;28;19963;-74
2022/11/19 10:11:52;;;;;;;;;;;22.40;99.90;;;;;;5057334;28;19944;-77
2022/11/19 10:14:37;;;;;;;;;;;22.40;99.90;;;;;;5063855;28;19920;-76
2022/11/19 10:17:12;;;;;;;;;;;22.30;99.90;;;;;;5060072;28;19917;-76
2022/11/19 10:19:50;;;;;;;;;;;22.30;99.90;;;;;;5063158;28;19920;-78
2022/11/19 10:22:22;;;;;;;;;;;22.20;99.90;;;;;;5056502;28;20002;-75
2022/11/19 10:24:55;;;;;;;;;;;22.20;99.90;;;;;;5062903;28;20367;-75
2022/11/19 10:27:22;;;;;;;;;;;22.10;99.90;;;;;;5061430;28;19921;-75
2022/11/19 10:29:51;;;;;;;;;;;21.90;99.90;;;;;;5056115;28;19912;-76
2022/11/19 10:32:18;;;;;;;;;;;21.90;99.90;;;;;;5058130;28;20049;-76
2022/11/19 10:34:45;;;;;;;;;;;21.70;99.90;;;;;;5056905;28;19978;-76
2022/11/19 10:37:17;;;;;;;;;;;21.70;99.90;;;;;;5056481;28;19932;-75
2022/11/19 10:39:43;;;;;;;;;;;21.60;99.90;;;;;;5056740;28;19920;-76
2022/11/19 10:42:16;;;;;;;;;;;21.60;99.90;;;;;;5054435;28;19916;-75
2022/11/19 10:44:50;;;;;;;;;;;21.60;99.90;;;;;;5055842;28;19924;-76
2022/11/19 10:47:19;;;;;;;;;;;21.60;99.90;;;;;;5056343;28;20366;-74
2022/11/19 10:49:50;;;;;;;;;;;21.60;99.90;;;;;;5057573;28;19928;-77
2022/11/19 10:52:21;;;;;;;;;;;21.60;99.90;;;;;;5056289;28;19928;-75
2022/11/19 10:54:49;;;;;;;;;;;21.60;99.90;;;;;;5055649;28;19999;-75
2022/11/19 10:57:18;;;;;;;;;;;21.60;99.90;;;;;;5055030;28;19921;-74
2022/11/19 10:59:46;;;;;;;;;;;21.60;99.90;;;;;;5055497;28;19920;-77
2022/11/19 11:02:38;;;;;;;;;;;21.50;99.90;;;;;;5052970;28;19924;-77
2022/11/19 11:05:10;;;;;;;;;;;21.50;99.90;;;;;;5050171;28;19916;-76
2022/11/19 11:07:56;;;;;;;;;;;21.40;99.90;;;;;;5054016;28;20019;-75
2022/11/19 11:10:44;;;;;;;;;;;21.40;99.90;;;;;;5053094;28;20390;-73
2022/11/19 11:16:07;;;;;;;;;;;21.30;99.90;;;;;;5053906;28;19974;-76
2022/11/19 11:18:34;;;;;;;;;;;21.30;99.90;;;;;;5058313;28;19916;-73
2022/11/19 11:21:01;;;;;;;;;;;21.30;99.90;;;;;;5054303;28;19942;-73
2022/11/19 11:23:29;;;;;;;;;;;21.30;99.90;;;;;;5057417;28;19918;-77
2022/11/19 11:25:59;;;;;;;;;;;21.30;99.90;;;;;;5052047;28;20383;-74
2022/11/19 11:28:26;;;;;;;;;;;21.20;99.90;;;;;;5056012;28;21815;-75
2022/11/19 11:30:54;;;;;;;;;;;21.20;99.90;;;;;;5059759;28;19931;-74
2022/11/19 11:33:24;;;;;;;;;;;21.20;99.90;;;;;;5054316;28;20414;-73
2022/11/19 11:35:52;;;;;;;;;;;21.10;99.90;;;;;;5055388;28;19920;-74
2022/11/19 11:38:20;;;;;;;;;;;21.10;99.90;;;;;;5057676;28;20378;-75
2022/11/19 11:40:58;;;;;;;;;;;21.10;99.90;;;;;;5056480;28;19923;-74
2022/11/19 11:43:26;;;;;;;;;;;21.10;99.90;;;;;;5056507;28;19920;-73
2022/11/19 11:45:57;;;;;;;;;;;21.10;99.90;;;;;;5053353;28;19924;-72
2022/11/19 11:48:24;;;;;;;;;;;21.10;99.90;;;;;;5056731;28;19920;-73
2022/11/19 11:50:51;;;;;;;;;;;21.00;99.90;;;;;;5055638;28;20695;-74
2022/11/19 11:53:31;;;;;;;;;;;21.00;99.90;;;;;;5056268;28;19990;-75
2022/11/19 11:55:59;;;;;;;;;;;21.10;99.90;;;;;;5053633;28;19961;-73
2022/11/19 11:58:25;;;;;;;;;;;21.10;99.90;;;;;;5055672;28;20452;-72
2022/11/19 12:00:54;;;;;;;;;;;21.20;99.90;;;;;;5055373;28;20290;-77
2022/11/19 12:03:21;;;;;;;;;;;21.20;99.90;;;;;;5057830;28;20517;-75
2022/11/19 12:06:06;;;;;;;;;;;21.40;99.90;;;;;;5053827;28;19973;-74
2022/11/19 12:08:50;;;;;;;;;;;21.40;99.90;;;;;;5055680;28;19920;-72
2022/11/19 12:11:25;;;;;;;;;;;21.40;99.90;;;;;;5055099;28;19925;-74
2022/11/19 12:13:52;;;;;;;;;;;21.30;99.90;;;;;;5055842;28;19917;-72
2022/11/19 12:16:19;;;;;;;;;;;21.30;99.90;;;;;;5053516;28;19921;-75
2022/11/19 12:18:45;;;;;;;;;;;21.20;99.90;;;;;;5055808;28;19920;-74
2022/11/19 12:21:30;;;;;;;;;;;21.10;99.90;;;;;;5055319;28;19921;-72
2022/11/19 12:24:13;;;;;;;;;;;21.10;99.90;;;;;;5053425;28;19924;-73
2022/11/19 12:26:52;;;;;;;;;;;21.00;99.90;;;;;;5058771;28;19928;-74
2022/11/19 12:29:21;;;;;;;;;;;20.90;99.90;;;;;;5056404;28;19912;-75
2022/11/19 12:31:48;;;;;;;;;;;20.80;99.90;;;;;;5056927;28;19916;-75
2022/11/19 12:34:14;;;;;;;;;;;20.80;99.90;;;;;;5054559;28;19916;-75
2022/11/19 12:36:47;;;;;;;;;;;20.80;99.90;;;;;;5053829;28;19954;-77
2022/11/19 12:39:30;;;;;;;;;;;20.70;99.90;;;;;;5056050;28;19920;-74
2022/11/19 12:42:15;;;;;;;;;;;20.60;99.90;;;;;;5055605;28;19927;-76
2022/11/19 12:44:50;;;;;;;;;;;20.60;99.90;;;;;;5057169;28;20445;-75
2022/11/19 12:47:27;;;;;;;;;;;20.60;99.90;;;;;;5053248;28;19928;-75
2022/11/19 12:50:03;;;;;;;;;;;20.50;99.90;;;;;;5052848;28;20367;-74
2022/11/19 12:52:45;;;;;;;;;;;20.40;99.90;;;;;;5053734;28;19913;-74
2022/11/19 12:55:32;;;;;;;;;;;20.40;99.90;;;;;;5048405;28;19967;-76
2022/11/19 12:58:18;;;;;;;;;;;20.30;99.90;;;;;;5042610;28;19917;-76
2022/11/19 13:00:51;;;;;;;;;;;20.20;99.90;;;;;;5056063;28;19962;-76
2022/11/19 13:03:26;;;;;;;;;;;20.00;99.90;;;;;;5054260;28;19948;-76
2022/11/19 13:05:52;;;;;;;;;;;19.90;99.90;;;;;;5055158;28;19960;-74
2022/11/19 13:08:19;;;;;;;;;;;19.90;99.90;;;;;;5054171;28;20451;-74
2022/11/19 13:10:50;;;;;;;;;;;19.90;99.90;;;;;;5052795;28;19963;-76
2022/11/19 13:13:20;;;;;;;;;;;19.80;99.90;;;;;;5054912;28;19921;-74
2022/11/19 13:15:51;;;;;;;;;;;19.70;99.90;;;;;;5054331;28;19916;-74
2022/11/19 13:18:18;;;;;;;;;;;19.70;99.90;;;;;;5055840;28;20011;-77
2022/11/19 13:21:03;;;;;;;;;;;19.70;99.90;;;;;;5054048;28;19916;-76
2022/11/19 13:23:33;;;;;;;;;;;19.60;99.90;;;;;;5056005;28;19920;-76
2022/11/19 13:26:09;;;;;;;;;;;19.60;99.90;;;;;;5052606;28;19928;-77
2022/11/19 13:28:39;;;;;;;;;;;19.60;99.90;;;;;;5056203;28;19916;-76
2022/11/19 13:31:09;;;;;;;;;;;19.60;99.90;;;;;;5058638;28;20438;-74
2022/11/19 13:33:40;;;;;;;;;;;19.50;99.90;;;;;;5060500;28;19917;-76
2022/11/19 13:36:19;;;;;;;;;;;19.40;99.90;;;;;;5058776;28;19921;-76
2022/11/19 13:38:51;;;;;;;;;;;19.30;99.90;;;;;;5057713;28;19924;-75
2022/11/19 13:41:21;;;;;;;;;;;19.30;99.90;;;;;;5058561;28;19917;-75
2022/11/19 13:46:51;;;;;;;;;;;19.20;99.90;;;;;;5057957;28;19970;-76
2022/11/19 13:49:17;;;;;;;;;;;19.10;99.90;;;;;;5057655;28;20410;-75
2022/11/19 13:51:47;;;;;;;;;;;19.00;99.90;;;;;;5058550;28;19917;-76
2022/11/19 13:54:22;;;;;;;;;;;19.00;99.90;;;;;;5057998;28;19945;-75
2022/11/19 13:56:50;;;;;;;;;;;18.90;99.90;;;;;;5057320;28;20003;-76
2022/11/19 13:59:28;;;;;;;;;;;18.90;99.90;;;;;;5058635;28;20471;-76
2022/11/19 14:02:04;;;;;;;;;;;18.90;99.90;;;;;;5061761;28;19916;-76
2022/11/19 14:04:40;;;;;;;;;;;19.00;99.90;;;;;;5058407;28;19921;-75
2022/11/19 14:07:28;;;;;;;;;;;18.90;99.90;;;;;;5057491;28;20011;-74
2022/11/19 14:10:13;;;;;;;;;;;18.90;99.90;;;;;;5058447;28;19932;-76
2022/11/19 14:12:45;;;;;;;;;;;18.90;99.90;;;;;;5058375;28;19931;-75
2022/11/19 14:27:21;;;;;;;;;;;18.80;99.90;;;;;;5056685;28;19974;-77
2022/11/19 14:29:47;;;;;;;;;;;18.80;99.90;;;;;;5058136;28;19951;-75
2022/11/19 14:32:14;;;;;;;;;;;18.80;99.90;;;;;;5057474;28;20374;-76
2022/11/19 14:35:07;;;;;;;;;;;18.70;99.90;;;;;;5057145;28;19967;-76
2022/11/19 14:37:46;;;;;;;;;;;18.70;99.90;;;;;;5062785;28;19912;-76
2022/11/19 14:40:22;;;;;;;;;;;18.60;99.90;;;;;;5058241;28;19916;-75
2022/11/19 14:46:08;;;;;;;;;;;18.60;99.90;;;;;;5056969;28;19938;-76
2022/11/19 14:48:47;;;;;;;;;;;18.50;99.90;;;;;;5049524;28;19920;-77
2022/11/19 14:51:33;;;;;;;;;;;18.60;99.90;;;;;;5056558;28;19948;-76
2022/11/19 14:54:05;;;;;;;;;;;18.50;99.90;;;;;;5055834;28;19917;-76
2022/11/19 14:56:34;;;;;;;;;;;18.60;99.90;;;;;;5057210;28;19921;-76
2022/11/19 14:59:09;;;;;;;;;;;18.60;99.90;;;;;;5055395;28;20301;-76
2022/11/19 15:01:48;;;;;;;;;;;18.50;99.90;;;;;;5054593;28;19962;-75
2022/11/19 15:04:15;;;;;;;;;;;18.50;99.90;;;;;;5040519;28;20446;-76
2022/11/19 15:06:44;;;;;;;;;;;18.50;99.90;;;;;;5058253;28;20271;-76
2022/11/19 15:09:11;;;;;;;;;;;18.50;99.90;;;;;;5057885;28;19920;-74
2022/11/19 15:11:57;;;;;;;;;;;18.40;99.90;;;;;;5055282;28;19916;-74